createdAt,value
2023-05-21T00:00:12.942Z,1.98
2023-05-21T00:03:16.358Z,2.08
2023-05-21T00:06:21.018Z,1.77
2023-05-21T00:09:23.083Z,2.63
2023-05-21T00:12:24.992Z,3.07
2023-05-21T00:15:26.772Z,2.33
2023-05-21T00:18:28.622Z,1.92
2023-05-21T00:21:31.710Z,2.37
2023-05-21T00:24:33.589Z,1.75
2023-05-21T00:27:35.406Z,1.90
2023-05-21T00:30:37.300Z,2.90
2023-05-21T00:33:39.131Z,4.30
2023-05-21T00:36:40.948Z,2.23
2023-05-21T00:39:43.288Z,1.95
2023-05-21T00:42:47.946Z,1.77
2023-05-21T00:45:49.904Z,4.00
2023-05-21T00:48:52.564Z,1.43
2023-05-21T00:54:56.861Z,1.33
2023-05-21T00:57:58.792Z,2.60
2023-05-21T01:01:07.067Z,2.03
2023-05-21T01:04:09.218Z,2.53
2023-05-21T01:07:11.186Z,1.83
2023-05-21T01:10:13.292Z,2.10
2023-05-21T01:13:17.028Z,3.05
2023-05-21T01:16:18.992Z,2.50
2023-05-21T01:19:22.278Z,2.37
2023-05-21T01:22:25.444Z,1.58
2023-05-21T01:25:27.546Z,2.13
2023-05-21T01:28:30.047Z,2.00
2023-05-21T01:32:01.471Z,1.67
2023-05-21T01:35:17.540Z,2.83
2023-05-21T01:39:02.110Z,1.23
2023-05-21T01:42:09.123Z,3.13
2023-05-21T01:45:12.230Z,2.70
2023-05-21T01:48:17.433Z,1.92
2023-05-21T01:51:19.565Z,2.55
2023-05-21T01:54:22.107Z,2.53
2023-05-21T01:57:24.030Z,1.80
2023-05-21T02:00:28.484Z,2.03
2023-05-21T02:03:31.611Z,2.70
2023-05-21T02:06:35.878Z,2.10
2023-05-21T02:09:37.773Z,2.88
2023-05-21T02:12:39.816Z,2.10
2023-05-21T02:15:42.390Z,2.58
2023-05-21T02:18:44.331Z,2.65
2023-05-21T02:21:46.233Z,3.53
2023-05-21T02:24:48.027Z,2.13
2023-05-21T02:27:53.623Z,2.35
2023-05-21T02:30:56.434Z,1.70
2023-05-21T02:33:58.378Z,2.65
2023-05-21T02:37:00.381Z,2.70
2023-05-21T02:40:05.203Z,4.07
2023-05-21T02:43:07.198Z,2.15
2023-05-21T02:46:09.108Z,2.23
2023-05-21T02:49:12.317Z,3.20
2023-05-21T02:52:15.326Z,3.90
2023-05-21T02:55:17.257Z,2.57
2023-05-21T02:58:19.380Z,2.37
2023-05-21T03:01:21.402Z,1.67
2023-05-21T03:04:23.269Z,2.97
2023-05-21T03:07:25.109Z,3.13
2023-05-21T03:10:26.945Z,2.40
2023-05-21T03:13:29.309Z,1.98
2023-05-21T03:16:34.639Z,3.23
2023-05-21T03:19:36.747Z,3.45
2023-05-21T03:22:39.973Z,3.13
2023-05-21T03:25:42.751Z,2.63
2023-05-21T03:28:44.620Z,2.20
2023-05-21T03:31:46.797Z,2.80
2023-05-21T03:34:49.603Z,2.33
2023-05-21T03:37:53.454Z,2.65
2023-05-21T03:40:55.424Z,6.22
2023-05-21T03:43:57.660Z,2.80
2023-05-21T03:47:03.857Z,2.40
2023-05-21T03:50:10.630Z,3.33
2023-05-21T03:53:12.619Z,4.32
2023-05-21T03:56:14.947Z,3.53
2023-05-21T03:59:17.115Z,3.65
2023-05-21T04:08:25.321Z,7.57
2023-05-21T04:11:27.358Z,4.53
2023-05-21T04:14:29.169Z,4.88
2023-05-21T04:17:31.137Z,3.97
2023-05-21T04:20:33.080Z,4.78
2023-05-21T04:23:36.823Z,4.43
2023-05-21T04:26:44.687Z,5.40
2023-05-21T04:29:50.634Z,5.53
2023-05-21T04:32:52.973Z,4.82
2023-05-21T04:35:55.525Z,4.60
2023-05-21T04:38:57.521Z,4.45
2023-05-21T04:41:59.426Z,4.45
2023-05-21T04:45:01.972Z,5.03
2023-05-21T04:48:05.742Z,4.05
2023-05-21T04:51:07.665Z,7.25
2023-05-21T04:54:09.708Z,6.50
2023-05-21T04:57:11.805Z,6.10
2023-05-21T05:00:13.993Z,8.37
2023-05-21T05:03:18.406Z,5.43
2023-05-21T05:06:21.492Z,4.57
2023-05-21T05:09:25.303Z,4.55
2023-05-21T05:12:28.004Z,5.72
2023-05-21T05:15:30.342Z,5.25
2023-05-21T05:18:34.129Z,5.25
2023-05-21T05:21:36.399Z,5.68
2023-05-21T05:24:39.579Z,9.00
2023-05-21T05:27:41.476Z,6.63
2023-05-21T05:30:43.621Z,9.38
2023-05-21T05:33:53.056Z,6.05
2023-05-21T05:36:57.334Z,6.60
2023-05-21T05:39:59.494Z,7.18
2023-05-21T05:43:02.423Z,6.35
2023-05-21T05:46:04.480Z,9.27
2023-05-21T05:49:06.443Z,8.43
2023-05-21T05:52:08.336Z,7.65
2023-05-21T05:55:12.288Z,8.02
2023-05-21T05:58:14.341Z,7.65
2023-05-21T06:01:32.154Z,6.53
2023-05-21T06:04:34.058Z,7.25
2023-05-21T06:07:38.687Z,8.20
2023-05-21T06:10:40.446Z,6.32
2023-05-21T06:13:42.400Z,7.18
2023-05-21T06:16:45.028Z,9.95
2023-05-21T06:19:47.529Z,5.97
2023-05-21T06:22:49.598Z,7.28
2023-05-21T06:25:51.470Z,6.30
2023-05-21T06:28:54.589Z,4.93
2023-05-21T06:31:56.467Z,7.15
2023-05-21T06:34:58.251Z,7.50
2023-05-21T06:38:00.181Z,6.88
2023-05-21T06:41:04.096Z,7.53
2023-05-21T06:44:21.392Z,6.35
2023-05-21T06:47:42.030Z,6.80
2023-05-21T06:50:44.051Z,6.60
2023-05-21T06:53:46.140Z,8.10
2023-05-21T06:56:48.481Z,7.43
2023-05-21T06:59:50.993Z,6.78
2023-05-21T07:02:53.116Z,8.20
2023-05-21T07:05:55.280Z,6.07
2023-05-21T07:08:57.126Z,6.72
2023-05-21T07:11:59.113Z,7.63
2023-05-21T07:15:01.250Z,8.23
2023-05-21T07:18:04.236Z,6.88
2023-05-21T07:21:06.225Z,5.78
2023-05-21T07:24:08.087Z,6.88
2023-05-21T07:27:24.644Z,6.47
2023-05-21T07:30:28.805Z,6.65
2023-05-21T07:33:30.868Z,6.38
2023-05-21T07:36:33.793Z,5.75
2023-05-21T07:39:37.981Z,6.35
2023-05-21T07:42:40.954Z,5.45
2023-05-21T07:45:45.978Z,5.93
2023-05-21T07:48:48.538Z,4.95
2023-05-21T07:51:50.685Z,5.93
2023-05-21T07:54:52.660Z,4.95
2023-05-21T07:57:57.611Z,6.22
2023-05-21T08:01:03.620Z,5.05
2023-05-21T08:04:07.236Z,6.32
2023-05-21T08:07:12.902Z,7.47
2023-05-21T08:10:16.134Z,6.40
2023-05-21T08:13:19.512Z,8.13
2023-05-21T08:16:23.638Z,9.25
2023-05-21T08:19:25.924Z,8.15
2023-05-21T08:22:27.816Z,7.65
2023-05-21T08:25:30.369Z,6.28
2023-05-21T08:28:35.644Z,6.20
2023-05-21T08:31:37.494Z,6.85
2023-05-21T08:34:39.520Z,6.68
2023-05-21T08:38:01.526Z,8.27
2023-05-21T08:41:31.060Z,7.55
2023-05-21T08:44:34.005Z,7.68
2023-05-21T08:47:37.161Z,7.40
2023-05-21T08:50:41.381Z,8.55
2023-05-21T08:53:50.623Z,8.05
2023-05-21T08:56:55.525Z,8.88
2023-05-21T08:59:58.271Z,9.07
2023-05-21T09:03:07.544Z,6.18
2023-05-21T09:06:16.429Z,6.35
2023-05-21T09:09:32.453Z,6.07
2023-05-21T09:12:35.513Z,5.60
2023-05-21T09:15:37.970Z,5.05
2023-05-21T09:18:41.325Z,6.88
2023-05-21T09:21:53.368Z,6.15
2023-05-21T09:24:58.115Z,8.70
2023-05-21T09:28:00.176Z,4.95
2023-05-21T09:31:03.549Z,6.10
2023-05-21T09:34:05.477Z,7.53
2023-05-21T09:37:16.459Z,10.13
2023-05-21T09:40:26.705Z,6.93
2023-05-21T09:43:28.945Z,9.20
2023-05-21T09:46:41.434Z,6.85
2023-05-21T09:49:44.309Z,5.85
2023-05-21T09:55:53.449Z,6.20
2023-05-21T09:58:57.073Z,4.00
2023-05-21T10:01:59.934Z,4.25
2023-05-21T10:05:05.469Z,5.50
2023-05-21T10:08:12.224Z,5.07
2023-05-21T10:11:16.957Z,5.47
2023-05-21T10:14:25.524Z,4.00
2023-05-21T10:17:29.719Z,4.25
2023-05-21T10:20:32.015Z,5.45
2023-05-21T10:23:36.836Z,5.00
2023-05-21T10:26:41.412Z,6.22
2023-05-21T10:29:44.589Z,6.70
2023-05-21T10:32:48.248Z,5.40
2023-05-21T10:35:53.087Z,6.05
2023-05-21T10:38:57.094Z,5.30
2023-05-21T10:42:17.603Z,5.00
2023-05-21T10:46:05.646Z,6.60
2023-05-21T10:49:16.719Z,4.72
2023-05-21T10:52:50.547Z,5.97
2023-05-21T10:56:04.454Z,4.20
2023-05-21T10:59:35.994Z,4.93
2023-05-21T11:02:38.621Z,7.38
2023-05-21T11:05:50.860Z,5.47
2023-05-21T11:08:55.301Z,7.10
2023-05-21T11:11:59.172Z,5.72
2023-05-21T11:15:01.198Z,7.05
2023-05-21T11:18:03.158Z,7.93
2023-05-21T11:21:06.347Z,7.30
2023-05-21T11:24:08.828Z,7.25
2023-05-21T11:30:19.616Z,6.68
2023-05-21T11:33:21.536Z,7.32
2023-05-21T11:36:23.336Z,7.70
2023-05-21T11:39:25.558Z,8.45
2023-05-21T11:42:42.729Z,8.38
2023-05-21T11:45:50.560Z,7.53
2023-05-21T11:48:52.775Z,6.90
2023-05-21T11:51:54.714Z,7.85
2023-05-21T11:54:58.188Z,7.68
2023-05-21T11:58:00.911Z,6.85
2023-05-21T12:01:02.752Z,5.50
2023-05-21T12:04:05.165Z,5.75
2023-05-21T12:10:11.133Z,5.95
2023-05-21T12:13:14.988Z,8.45
2023-05-21T12:16:16.889Z,6.45
2023-05-21T12:19:19.228Z,6.50
2023-05-21T12:22:21.801Z,5.40
2023-05-21T12:28:25.680Z,5.28
2023-05-21T12:31:30.975Z,5.20
2023-05-21T12:34:40.806Z,5.72
2023-05-21T12:37:43.447Z,4.75
2023-05-21T12:40:45.868Z,5.55
2023-05-21T12:43:48.067Z,4.80
2023-05-21T12:46:49.968Z,5.65
2023-05-21T12:49:55.913Z,3.70
2023-05-21T12:52:58.492Z,4.43
2023-05-21T12:56:10.266Z,3.97
2023-05-21T12:59:17.644Z,4.23
2023-05-21T13:02:23.085Z,4.57
2023-05-21T13:05:24.925Z,4.22
2023-05-21T13:08:27.262Z,3.77
2023-05-21T13:11:30.259Z,4.38
2023-05-21T13:14:32.350Z,4.45
2023-05-21T13:17:34.977Z,3.55
2023-05-21T13:20:37.172Z,4.82
2023-05-21T13:23:39.212Z,4.43
2023-05-21T13:26:41.511Z,5.10
2023-05-21T13:29:43.410Z,4.05
2023-05-21T13:32:45.901Z,2.88
2023-05-21T13:38:53.188Z,4.00
2023-05-21T13:41:55.155Z,4.63
2023-05-21T13:44:57.049Z,4.10
2023-05-21T13:47:58.998Z,3.75
2023-05-21T13:51:00.883Z,3.55
2023-05-21T13:54:02.848Z,4.40
2023-05-21T13:57:04.773Z,3.42
2023-05-21T14:00:09.318Z,5.57
2023-05-21T14:03:12.289Z,3.67
2023-05-21T14:06:14.236Z,2.95
2023-05-21T14:09:16.316Z,4.90
2023-05-21T14:12:19.005Z,3.08
2023-05-21T14:15:21.285Z,3.63
2023-05-21T14:18:23.098Z,2.85
2023-05-21T14:21:25.986Z,2.55
2023-05-21T14:24:27.956Z,3.65
2023-05-21T14:27:29.799Z,4.43
2023-05-21T14:30:31.700Z,3.47
2023-05-21T14:33:35.418Z,3.30
2023-05-21T14:36:37.329Z,2.92
2023-05-21T14:39:39.127Z,3.60
2023-05-21T14:42:41.014Z,4.28
2023-05-21T14:45:42.926Z,2.95
2023-05-21T14:48:46.806Z,3.72
2023-05-21T14:51:48.781Z,3.00
2023-05-21T14:54:50.703Z,8.13
2023-05-21T14:57:52.501Z,7.40
2023-05-21T15:00:54.388Z,4.68
2023-05-21T15:03:58.577Z,3.53
2023-05-21T15:07:00.693Z,3.33
2023-05-21T15:10:02.546Z,3.65
2023-05-21T15:13:04.451Z,3.08
2023-05-21T15:16:06.565Z,3.38
2023-05-21T15:19:08.539Z,8.15
2023-05-21T15:22:10.521Z,5.88
2023-05-21T15:25:12.408Z,3.83
2023-05-21T15:28:14.301Z,5.70
2023-05-21T15:31:16.213Z,3.70
2023-05-21T15:34:18.205Z,3.13
2023-05-21T15:37:20.238Z,3.50
2023-05-21T15:40:22.666Z,3.72
2023-05-21T15:43:25.977Z,2.42
2023-05-21T15:46:27.795Z,2.92
2023-05-21T15:49:29.769Z,4.00
2023-05-21T15:52:31.612Z,3.70
2023-05-21T15:55:33.850Z,2.97
2023-05-21T15:58:35.768Z,3.38
2023-05-21T16:01:37.884Z,3.63
2023-05-21T16:04:39.856Z,4.00
2023-05-21T16:07:41.797Z,3.50
2023-05-21T16:10:46.130Z,4.10
2023-05-21T16:13:48.099Z,3.78
2023-05-21T16:16:49.914Z,4.88
2023-05-21T16:19:51.887Z,3.60
2023-05-21T16:22:53.737Z,3.55
2023-05-21T16:25:55.893Z,4.32
2023-05-21T16:28:58.878Z,4.30
2023-05-21T16:32:01.024Z,3.90
2023-05-21T16:35:03.377Z,3.95
2023-05-21T16:38:05.410Z,5.00
2023-05-21T16:41:07.355Z,4.35
2023-05-21T16:44:09.330Z,5.45
2023-05-21T16:47:11.371Z,4.97
2023-05-21T16:50:13.428Z,5.90
2023-05-21T16:53:16.354Z,4.90
2023-05-21T16:56:18.526Z,6.53
2023-05-21T16:59:20.588Z,5.40
2023-05-21T17:02:22.988Z,5.65
2023-05-21T17:08:29.921Z,6.25
2023-05-21T17:11:31.974Z,4.32
2023-05-21T17:14:36.244Z,4.47
2023-05-21T17:17:39.367Z,6.32
2023-05-21T17:20:43.805Z,6.20
2023-05-21T17:23:45.873Z,6.00
2023-05-21T17:26:47.741Z,5.63
2023-05-21T17:29:49.652Z,6.25
2023-05-21T17:32:51.530Z,5.20
2023-05-21T17:35:53.751Z,6.32
2023-05-21T17:38:55.656Z,5.53
2023-05-21T17:41:57.516Z,4.85
2023-05-21T17:44:59.475Z,5.55
2023-05-21T17:48:01.440Z,7.13
2023-05-21T17:51:03.499Z,5.43
2023-05-21T17:54:06.001Z,9.27
2023-05-21T17:57:07.801Z,9.35
2023-05-21T18:00:10.309Z,7.68
2023-05-21T18:03:15.028Z,10.65
2023-05-21T18:06:17.023Z,9.70
2023-05-21T18:09:19.255Z,10.07
2023-05-21T18:12:22.208Z,14.55
2023-05-21T18:15:25.102Z,18.15
2023-05-21T18:18:27.116Z,17.20
2023-05-21T18:21:29.051Z,17.08
2023-05-21T18:24:30.953Z,16.10
2023-05-21T18:27:32.820Z,14.35
2023-05-21T18:30:35.202Z,12.07
2023-05-21T18:36:40.284Z,11.10
2023-05-21T18:39:42.147Z,9.00
2023-05-21T18:42:44.006Z,9.68
2023-05-21T18:45:46.934Z,9.88
2023-05-21T18:48:48.891Z,6.70
2023-05-21T18:51:50.837Z,8.70
2023-05-21T18:54:52.733Z,9.65
2023-05-21T18:57:55.549Z,8.60
2023-05-21T19:00:57.952Z,8.32
2023-05-21T19:03:59.817Z,8.00
2023-05-21T19:07:03.072Z,6.30
2023-05-21T19:10:05.217Z,5.45
2023-05-21T19:13:07.184Z,8.13
2023-05-21T19:16:11.469Z,6.63
2023-05-21T19:19:13.462Z,4.68
2023-05-21T19:22:19.762Z,4.65
2023-05-21T19:25:21.928Z,4.90
2023-05-21T19:28:23.801Z,4.95
2023-05-21T19:31:25.796Z,5.33
2023-05-21T19:34:27.765Z,4.60
2023-05-21T19:37:29.639Z,4.32
2023-05-21T19:40:31.414Z,4.47
2023-05-21T19:43:33.246Z,6.83
2023-05-21T19:46:35.041Z,3.67
2023-05-21T19:49:38.426Z,5.93
2023-05-21T19:52:41.302Z,4.60
2023-05-21T19:55:44.676Z,4.93
2023-05-21T19:58:48.052Z,4.95
2023-05-21T20:01:50.050Z,5.07
2023-05-21T20:04:53.525Z,4.43
2023-05-21T20:07:55.945Z,4.97
2023-05-21T20:10:57.885Z,5.47
2023-05-21T20:13:59.940Z,5.22
2023-05-21T20:17:02.009Z,6.55
2023-05-21T20:20:11.180Z,5.22
2023-05-21T20:23:13.786Z,4.72
2023-05-21T20:26:16.171Z,5.80
2023-05-21T20:29:18.040Z,5.18
2023-05-21T20:32:19.951Z,5.37
2023-05-21T20:35:21.922Z,4.70
2023-05-21T20:38:25.872Z,3.78
2023-05-21T20:41:35.842Z,4.50
2023-05-21T20:44:37.761Z,4.72
2023-05-21T20:47:39.680Z,4.23
2023-05-21T20:50:44.353Z,3.42
2023-05-21T20:53:47.062Z,4.22
2023-05-21T20:59:53.376Z,4.40
2023-05-21T21:02:55.746Z,4.40
2023-05-21T21:05:59.638Z,4.28
2023-05-21T21:09:01.474Z,4.15
2023-05-21T21:12:14.419Z,4.93
2023-05-21T21:15:26.384Z,6.20
2023-05-21T21:18:28.242Z,5.00
2023-05-21T21:21:30.147Z,4.57
2023-05-21T21:24:32.047Z,4.43
2023-05-21T21:27:33.916Z,4.27
2023-05-21T21:30:35.773Z,4.27
2023-05-21T21:33:37.651Z,5.27
2023-05-21T21:36:39.890Z,4.60
2023-05-21T21:39:41.756Z,5.10
2023-05-21T21:42:43.718Z,5.20
2023-05-21T21:45:45.615Z,4.32
2023-05-21T21:48:48.563Z,4.20
2023-05-21T21:51:51.315Z,5.78
2023-05-21T21:57:57.039Z,5.03
2023-05-21T22:04:00.881Z,4.07
2023-05-21T22:07:02.875Z,5.87
2023-05-21T22:10:06.134Z,5.72
2023-05-21T22:13:08.087Z,5.47
2023-05-21T22:16:11.911Z,3.83
2023-05-21T22:19:16.069Z,5.50
2023-05-21T22:22:17.950Z,3.83
2023-05-21T22:25:19.826Z,3.93
2023-05-21T22:28:22.528Z,4.53
2023-05-21T22:31:24.483Z,4.63
2023-05-21T22:34:26.345Z,3.95
2023-05-21T22:37:28.470Z,4.27
2023-05-21T22:40:30.413Z,7.15
2023-05-21T22:43:34.602Z,4.07
2023-05-21T22:46:36.559Z,4.25
2023-05-21T22:49:40.667Z,4.67
2023-05-21T22:52:43.167Z,4.05
2023-05-21T22:55:45.054Z,3.80
2023-05-21T22:58:46.928Z,3.97
2023-05-21T23:01:48.893Z,5.63
2023-05-21T23:04:50.926Z,4.68
2023-05-21T23:07:52.945Z,4.57
2023-05-21T23:10:54.873Z,5.35
2023-05-21T23:13:56.777Z,4.70
2023-05-21T23:17:02.043Z,4.07
2023-05-21T23:20:05.612Z,5.10
2023-05-21T23:23:07.494Z,5.05
2023-05-21T23:26:09.346Z,4.80
2023-05-21T23:29:11.188Z,3.90
2023-05-21T23:32:13.224Z,5.20
2023-05-21T23:35:16.496Z,4.82
2023-05-21T23:38:18.297Z,4.82
2023-05-21T23:41:20.241Z,5.10
2023-05-21T23:44:22.072Z,5.13
2023-05-21T23:47:24.005Z,4.40
2023-05-21T23:50:25.950Z,3.55
2023-05-21T23:53:27.776Z,4.97
2023-05-21T23:56:30.408Z,4.73
2023-05-21T23:59:32.169Z,4.95
